createdAt,value
2019-03-06T00:01:37.619Z,18.10
2019-03-06T00:04:07.740Z,18.10
2019-03-06T00:06:37.875Z,18.10
2019-03-06T00:09:08.259Z,18.10
2019-03-06T00:11:38.407Z,18.10
2019-03-06T00:14:08.545Z,18.10
2019-03-06T00:16:38.683Z,18.00
2019-03-06T00:19:08.804Z,18.00
2019-03-06T00:21:38.955Z,18.00
2019-03-06T00:24:09.075Z,18.00
2019-03-06T00:26:39.203Z,18.00
2019-03-06T00:29:09.328Z,18.00
2019-03-06T00:31:39.663Z,18.00
2019-03-06T00:34:09.780Z,18.00
2019-03-06T00:36:39.967Z,18.00
2019-03-06T00:39:10.127Z,18.00
2019-03-06T00:41:40.768Z,18.00
2019-03-06T00:44:10.890Z,17.90
2019-03-06T00:46:41.038Z,17.90
2019-03-06T00:49:11.182Z,17.90
2019-03-06T00:51:41.308Z,17.90
2019-03-06T00:54:11.601Z,17.90
2019-03-06T00:56:41.749Z,17.90
2019-03-06T00:59:11.870Z,17.90
2019-03-06T01:01:42.007Z,17.90
2019-03-06T01:04:12.130Z,17.90
2019-03-06T01:06:42.264Z,17.90
2019-03-06T01:09:12.403Z,17.90
2019-03-06T01:11:42.611Z,17.80
2019-03-06T01:14:12.732Z,17.80
2019-03-06T01:16:43.041Z,17.80
2019-03-06T01:19:13.181Z,17.80
2019-03-06T01:21:44.276Z,17.80
2019-03-06T01:24:14.439Z,17.80
2019-03-06T01:26:44.571Z,17.80
2019-03-06T01:29:14.705Z,17.80
2019-03-06T01:31:44.846Z,17.80
2019-03-06T01:34:19.287Z,17.80
2019-03-06T01:36:54.001Z,17.80
2019-03-06T01:39:25.757Z,17.80
2019-03-06T01:41:57.536Z,17.70
2019-03-06T01:44:32.235Z,17.70
2019-03-06T01:47:02.363Z,17.70
2019-03-06T01:49:32.494Z,17.70
2019-03-06T01:52:02.639Z,17.70
2019-03-06T01:54:32.784Z,17.70
2019-03-06T01:57:02.917Z,17.70
2019-03-06T01:59:33.216Z,17.60
2019-03-06T02:02:03.367Z,17.70
2019-03-06T02:04:33.506Z,17.60
2019-03-06T02:07:03.690Z,17.70
2019-03-06T02:09:33.844Z,17.70
2019-03-06T02:12:03.973Z,17.60
2019-03-06T02:14:34.271Z,17.60
2019-03-06T02:17:04.412Z,17.60
2019-03-06T02:19:34.528Z,17.60
2019-03-06T02:22:04.861Z,17.60
2019-03-06T02:24:34.989Z,17.60
2019-03-06T02:27:05.142Z,17.60
2019-03-06T02:29:35.261Z,17.60
2019-03-06T02:32:05.391Z,17.50
2019-03-06T02:34:35.514Z,17.50
2019-03-06T02:37:05.664Z,17.50
2019-03-06T02:39:35.787Z,17.50
2019-03-06T02:42:05.940Z,17.50
2019-03-06T02:44:36.048Z,17.50
2019-03-06T02:47:06.190Z,17.50
2019-03-06T02:49:36.307Z,17.50
2019-03-06T02:52:07.438Z,17.50
2019-03-06T02:54:37.572Z,17.50
2019-03-06T02:57:08.846Z,17.50
2019-03-06T02:59:40.610Z,17.50
2019-03-06T03:02:18.453Z,17.50
2019-03-06T03:04:51.231Z,17.40
2019-03-06T03:07:21.508Z,17.40
2019-03-06T03:09:51.653Z,17.40
2019-03-06T03:12:21.812Z,17.40
2019-03-06T03:14:51.936Z,17.40
2019-03-06T03:17:22.089Z,17.40
2019-03-06T03:19:52.402Z,17.40
2019-03-06T03:22:22.539Z,17.40
2019-03-06T03:24:52.664Z,17.40
2019-03-06T03:27:22.793Z,17.40
2019-03-06T03:29:52.953Z,17.40
2019-03-06T03:32:23.110Z,17.30
2019-03-06T03:34:53.203Z,17.30
2019-03-06T03:37:23.332Z,17.30
2019-03-06T03:39:53.461Z,17.30
2019-03-06T03:42:23.597Z,17.30
2019-03-06T03:44:53.754Z,17.30
2019-03-06T03:47:23.874Z,17.30
2019-03-06T03:49:54.019Z,17.30
2019-03-06T03:52:24.152Z,17.30
2019-03-06T03:54:54.288Z,17.30
2019-03-06T03:57:25.396Z,17.30
2019-03-06T03:59:55.915Z,17.30
2019-03-06T04:02:26.119Z,17.30
2019-03-06T04:04:56.248Z,17.30
2019-03-06T04:07:26.558Z,17.20
2019-03-06T04:09:56.694Z,17.20
2019-03-06T04:12:26.818Z,17.20
2019-03-06T04:14:56.994Z,17.20
2019-03-06T04:17:27.113Z,17.20
2019-03-06T04:19:57.422Z,17.20
2019-03-06T04:22:27.569Z,17.20
2019-03-06T04:24:57.725Z,17.20
2019-03-06T04:27:27.864Z,17.20
2019-03-06T04:29:58.970Z,17.20
2019-03-06T04:32:29.174Z,17.20
2019-03-06T04:34:59.311Z,17.20
2019-03-06T04:37:29.488Z,17.20
2019-03-06T04:39:59.607Z,17.20
2019-03-06T04:42:29.729Z,17.20
2019-03-06T04:44:59.882Z,17.10
2019-03-06T04:47:29.995Z,17.10
2019-03-06T04:50:00.249Z,17.10
2019-03-06T04:52:30.321Z,17.10
2019-03-06T04:55:00.635Z,17.10
2019-03-06T04:57:30.776Z,17.10
2019-03-06T05:00:00.912Z,17.10
2019-03-06T05:02:31.204Z,17.20
2019-03-06T05:05:01.339Z,17.20
2019-03-06T05:07:31.459Z,17.20
2019-03-06T05:10:01.596Z,17.20
2019-03-06T05:12:31.727Z,17.20
2019-03-06T05:15:01.896Z,17.30
2019-03-06T05:17:51.442Z,17.30
2019-03-06T05:20:21.707Z,17.30
2019-03-06T05:22:51.838Z,17.40
2019-03-06T05:25:21.971Z,17.40
2019-03-06T05:27:52.100Z,17.40
2019-03-06T05:30:23.943Z,17.50
2019-03-06T05:33:13.682Z,17.50
2019-03-06T05:36:21.280Z,17.60
2019-03-06T05:39:10.904Z,17.60
2019-03-06T05:41:41.054Z,17.70
2019-03-06T05:44:11.202Z,17.70
2019-03-06T05:46:41.337Z,17.70
2019-03-06T05:49:11.749Z,17.70
2019-03-06T05:51:41.886Z,17.70
2019-03-06T05:54:12.010Z,17.80
2019-03-06T05:56:42.142Z,17.80
2019-03-06T05:59:12.261Z,17.70
2019-03-06T06:01:42.418Z,17.80
2019-03-06T06:04:12.548Z,17.80
2019-03-06T06:06:42.713Z,17.80
2019-03-06T06:09:12.921Z,17.80
2019-03-06T06:11:43.210Z,17.80
2019-03-06T06:14:13.342Z,17.90
2019-03-06T06:16:43.481Z,17.90
2019-03-06T06:19:13.606Z,18.00
2019-03-06T06:21:47.818Z,18.00
2019-03-06T06:24:18.920Z,18.10
2019-03-06T06:26:49.059Z,18.10
2019-03-06T06:29:19.190Z,18.10
2019-03-06T06:31:49.327Z,18.10
2019-03-06T06:34:19.633Z,18.10
2019-03-06T06:36:49.761Z,18.10
2019-03-06T06:39:19.893Z,18.10
2019-03-06T06:41:50.968Z,18.10
2019-03-06T06:44:21.115Z,18.10
2019-03-06T06:46:51.248Z,18.10
2019-03-06T06:49:21.369Z,18.20
2019-03-06T06:52:02.260Z,18.20
2019-03-06T06:54:52.005Z,18.20
2019-03-06T06:57:41.850Z,18.20
2019-03-06T07:00:27.327Z,18.30
2019-03-06T07:03:22.359Z,18.30
2019-03-06T07:06:03.404Z,18.30
2019-03-06T07:08:37.717Z,18.30
2019-03-06T07:11:12.138Z,18.30
2019-03-06T07:13:52.502Z,18.30
2019-03-06T07:16:33.107Z,18.40
2019-03-06T07:19:11.327Z,18.50
2019-03-06T07:21:58.203Z,18.50
2019-03-06T07:24:29.950Z,18.60
2019-03-06T07:27:05.366Z,18.60
2019-03-06T07:29:39.547Z,18.50
2019-03-06T07:32:11.326Z,18.60
2019-03-06T07:34:46.450Z,18.60
2019-03-06T07:37:33.194Z,18.70
2019-03-06T07:40:04.985Z,18.80
2019-03-06T07:42:36.763Z,18.80
2019-03-06T07:45:43.436Z,18.90
2019-03-06T07:48:15.224Z,18.90
2019-03-06T07:50:48.021Z,18.90
2019-03-06T07:53:47.987Z,18.90
2019-03-06T07:56:22.679Z,18.90
2019-03-06T07:58:55.675Z,19.00
2019-03-06T08:01:29.087Z,19.00
2019-03-06T08:04:14.161Z,19.00
2019-03-06T08:06:48.833Z,19.10
2019-03-06T08:09:20.384Z,19.10
2019-03-06T08:11:55.132Z,19.10
2019-03-06T08:14:38.692Z,19.20
2019-03-06T08:17:28.518Z,19.20
2019-03-06T08:20:15.130Z,19.20
2019-03-06T08:22:58.719Z,19.30
2019-03-06T08:25:36.440Z,19.30
2019-03-06T08:28:07.512Z,19.30
2019-03-06T08:30:51.230Z,19.30
2019-03-06T08:33:21.370Z,19.30
2019-03-06T08:35:51.521Z,19.20
2019-03-06T08:38:21.634Z,19.20
2019-03-06T08:40:51.763Z,19.10
2019-03-06T08:43:21.911Z,19.10
2019-03-06T08:46:05.697Z,19.10
2019-03-06T08:48:37.482Z,19.10
2019-03-06T08:51:09.259Z,19.10
2019-03-06T08:53:43.992Z,19.10
2019-03-06T08:56:21.613Z,19.00
2019-03-06T08:58:53.401Z,19.00
2019-03-06T09:01:37.864Z,19.00
2019-03-06T09:04:25.286Z,19.00
2019-03-06T09:07:12.912Z,18.90
2019-03-06T09:09:53.610Z,18.90
2019-03-06T09:12:34.194Z,18.90
2019-03-06T09:15:11.400Z,18.90
2019-03-06T09:17:43.171Z,18.90
2019-03-06T09:20:15.915Z,18.90
2019-03-06T09:22:53.582Z,18.80
2019-03-06T09:25:28.241Z,18.80
2019-03-06T09:28:02.933Z,18.80
2019-03-06T09:30:46.364Z,18.80
2019-03-06T09:33:21.039Z,18.80
2019-03-06T09:35:58.477Z,18.80
2019-03-06T09:38:30.263Z,18.80
2019-03-06T09:41:02.314Z,18.80
2019-03-06T09:43:36.761Z,18.80
2019-03-06T09:46:20.094Z,18.80
2019-03-06T09:49:11.649Z,18.80
2019-03-06T09:51:56.288Z,18.60
2019-03-06T09:54:28.062Z,18.40
2019-03-06T09:57:14.657Z,18.50
2019-03-06T10:00:02.571Z,18.60
2019-03-06T10:02:37.321Z,18.60
2019-03-06T10:05:09.931Z,18.60
2019-03-06T10:07:53.764Z,18.60
2019-03-06T10:10:29.413Z,18.70
2019-03-06T10:13:04.094Z,18.70
2019-03-06T10:15:50.338Z,18.70
2019-03-06T10:18:26.823Z,18.80
2019-03-06T10:20:57.143Z,18.80
2019-03-06T10:23:27.313Z,18.80
2019-03-06T10:25:57.463Z,18.90
2019-03-06T10:28:28.111Z,18.90
2019-03-06T10:33:30.130Z,19.00
2019-03-06T10:36:00.458Z,19.00
2019-03-06T10:38:30.669Z,19.10
2019-03-06T10:41:00.841Z,19.10
2019-03-06T15:15:27.525Z,19.30
2019-03-06T15:17:57.724Z,19.70
2019-03-06T15:20:29.101Z,19.70
2019-03-06T15:22:59.600Z,19.70
2019-03-06T15:25:30.972Z,19.70
2019-03-06T15:28:01.121Z,19.60
2019-03-06T15:30:31.256Z,19.60
2019-03-06T15:33:01.389Z,19.60
2019-03-06T15:35:31.521Z,19.60
2019-03-06T15:38:02.710Z,19.60
2019-03-06T15:40:35.855Z,19.50
2019-03-06T15:43:07.424Z,19.50
2019-03-06T15:45:37.566Z,19.60
2019-03-06T15:48:07.876Z,19.50
2019-03-06T15:50:38.026Z,19.60
2019-03-06T15:53:08.191Z,19.50
2019-03-06T15:55:38.331Z,19.50
2019-03-06T15:58:08.464Z,19.60
2019-03-06T16:00:45.973Z,19.50
2019-03-06T16:03:16.721Z,19.50
2019-03-06T16:05:47.857Z,19.50
2019-03-06T16:08:18.014Z,19.50
2019-03-06T16:10:48.420Z,19.50
2019-03-06T16:13:18.544Z,19.50
2019-03-06T16:15:49.650Z,19.50
2019-03-06T16:18:19.797Z,19.50
2019-03-06T16:20:49.953Z,19.50
2019-03-06T16:23:20.110Z,19.50
2019-03-06T16:25:50.248Z,19.50
2019-03-06T16:28:20.443Z,19.60
2019-03-06T16:30:50.569Z,19.50
2019-03-06T16:33:21.497Z,19.50
2019-03-06T16:35:51.849Z,19.50
2019-03-06T16:38:22.119Z,19.50
2019-03-06T16:40:52.278Z,19.50
2019-03-06T16:43:23.558Z,19.50
2019-03-06T16:45:55.394Z,19.50
2019-03-06T16:48:28.403Z,19.50
2019-03-06T16:50:59.580Z,19.50
2019-03-06T16:53:31.951Z,19.40
2019-03-06T16:56:04.176Z,19.40
2019-03-06T16:58:35.151Z,19.40
2019-03-06T17:01:06.047Z,19.40
2019-03-06T17:03:36.858Z,19.40
2019-03-06T17:06:07.928Z,19.40
2019-03-06T17:08:38.398Z,19.40
2019-03-06T17:11:08.641Z,19.40
2019-03-06T17:13:38.946Z,19.40
2019-03-06T17:16:13.288Z,19.40
2019-03-06T17:18:44.827Z,19.40
2019-03-06T17:21:16.129Z,19.30
2019-03-06T17:23:47.085Z,19.30
2019-03-06T17:26:18.235Z,19.30
2019-03-06T17:28:49.086Z,19.30
2019-03-06T17:31:20.239Z,19.30
2019-03-06T17:33:54.491Z,19.30
2019-03-06T17:36:26.877Z,19.30
2019-03-06T17:38:58.261Z,19.30
2019-03-06T17:41:31.448Z,19.30
2019-03-06T17:44:03.516Z,19.30
2019-03-06T17:46:34.468Z,19.30
2019-03-06T17:49:05.288Z,19.30
2019-03-06T17:51:36.943Z,19.20
2019-03-06T17:54:07.363Z,19.20
2019-03-06T17:56:37.857Z,19.20
2019-03-06T17:59:10.213Z,19.20
2019-03-06T18:01:41.819Z,19.20
2019-03-06T18:04:14.062Z,19.20
2019-03-06T18:06:45.031Z,19.20
2019-03-06T18:09:16.191Z,19.20
2019-03-06T18:11:47.636Z,19.20
2019-03-06T18:14:20.551Z,19.20
2019-03-06T18:16:52.100Z,19.20
2019-03-06T18:19:23.423Z,19.20
2019-03-06T18:21:53.555Z,19.20
2019-03-06T18:24:23.719Z,19.20
2019-03-06T18:26:53.875Z,19.20
2019-03-06T18:29:24.078Z,19.20
2019-03-06T18:31:54.242Z,19.20
2019-03-06T18:34:24.382Z,19.20
2019-03-06T18:36:54.546Z,19.20
2019-03-06T18:39:24.706Z,19.20
2019-03-06T18:41:55.233Z,19.20
2019-03-06T18:44:27.046Z,19.20
2019-03-06T18:46:57.296Z,19.20
2019-03-06T18:49:27.415Z,19.20
2019-03-06T18:51:57.544Z,19.20
2019-03-06T18:54:27.690Z,19.20
2019-03-06T18:56:57.841Z,19.20
2019-03-06T18:59:27.971Z,19.20
2019-03-06T19:01:58.125Z,19.20
2019-03-06T19:04:29.325Z,19.10
2019-03-06T19:06:59.466Z,19.20
2019-03-06T19:09:29.869Z,19.20
2019-03-06T19:12:00.043Z,19.20
2019-03-06T19:14:30.178Z,19.20
2019-03-06T19:17:00.413Z,19.10
2019-03-06T19:19:30.558Z,19.10
2019-03-06T19:22:00.871Z,19.20
2019-03-06T19:24:31.772Z,19.10
2019-03-06T19:27:04.129Z,19.10
2019-03-06T19:29:35.295Z,19.10
2019-03-06T19:32:06.568Z,19.10
2019-03-06T19:34:37.213Z,19.10
2019-03-06T19:37:07.838Z,19.10
2019-03-06T19:39:38.035Z,19.10
2019-03-06T19:42:12.416Z,19.10
2019-03-06T19:44:43.728Z,19.10
2019-03-06T19:47:13.875Z,19.10
2019-03-06T19:49:44.123Z,19.10
2019-03-06T19:52:14.334Z,19.10
2019-03-06T19:54:44.455Z,19.10
2019-03-06T19:57:15.954Z,19.10
2019-03-06T19:59:49.303Z,19.10
2019-03-06T20:02:20.377Z,19.10
2019-03-06T20:04:50.558Z,19.10
2019-03-06T20:07:20.691Z,19.10
2019-03-06T20:09:50.838Z,19.10
2019-03-06T20:12:20.966Z,19.10
2019-03-06T20:14:51.118Z,19.10
2019-03-06T20:17:21.267Z,19.10
2019-03-06T20:19:51.397Z,19.10
2019-03-06T20:22:22.865Z,19.10
2019-03-06T20:24:52.982Z,19.10
2019-03-06T20:27:23.130Z,19.10
2019-03-06T20:29:53.546Z,19.10
2019-03-06T20:32:23.685Z,19.00
2019-03-06T20:34:53.824Z,19.00
2019-03-06T20:37:23.967Z,19.10
2019-03-06T20:39:54.106Z,19.00
2019-03-06T20:42:24.251Z,19.00
2019-03-06T20:44:54.654Z,19.00
2019-03-06T20:47:24.790Z,19.00
2019-03-06T20:49:54.938Z,19.00
2019-03-06T20:52:25.079Z,19.00
2019-03-06T20:54:55.196Z,19.00
2019-03-06T20:57:25.375Z,19.00
2019-03-06T20:59:55.514Z,19.00
2019-03-06T21:02:25.719Z,19.00
2019-03-06T21:04:56.119Z,19.00
2019-03-06T21:07:26.275Z,19.00
2019-03-06T21:09:56.408Z,19.00
2019-03-06T21:12:27.624Z,19.00
2019-03-06T21:14:57.759Z,19.00
2019-03-06T21:17:28.023Z,19.00
2019-03-06T21:19:58.156Z,19.00
2019-03-06T21:22:28.303Z,19.00
2019-03-06T21:24:58.444Z,19.00
2019-03-06T21:27:28.564Z,19.00
2019-03-06T21:29:58.706Z,19.00
2019-03-06T21:32:29.146Z,19.00
2019-03-06T21:34:59.283Z,19.00
2019-03-06T21:37:29.420Z,19.00
2019-03-06T21:39:59.572Z,18.90
2019-03-06T21:42:29.688Z,18.90
2019-03-06T21:45:00.894Z,18.90
2019-03-06T21:47:31.099Z,18.90
2019-03-06T21:50:01.237Z,18.90
2019-03-06T21:52:32.640Z,18.90
2019-03-06T21:55:02.785Z,18.90
2019-03-06T21:57:34.532Z,18.90
2019-03-06T22:00:12.889Z,18.90
2019-03-06T22:02:43.194Z,18.90
2019-03-06T22:05:13.420Z,18.90
2019-03-06T22:07:43.564Z,18.90
2019-03-06T22:10:16.279Z,18.90
2019-03-06T22:12:46.808Z,18.90
2019-03-06T22:15:22.591Z,18.80
2019-03-06T22:17:52.719Z,18.80
2019-03-06T22:20:22.873Z,18.80
2019-03-06T22:22:53.000Z,18.80
2019-03-06T22:25:23.142Z,18.80
2019-03-06T22:27:53.267Z,18.80
2019-03-06T22:30:24.341Z,18.80
2019-03-06T22:32:54.470Z,18.80
2019-03-06T22:35:24.685Z,18.80
2019-03-06T22:37:57.168Z,18.80
2019-03-06T22:40:26.664Z,18.80
2019-03-06T22:42:56.790Z,18.80
2019-03-06T22:45:26.940Z,18.80
2019-03-06T22:47:57.065Z,18.70
2019-03-06T22:50:27.295Z,18.80
2019-03-06T22:52:57.421Z,18.80
2019-03-06T22:55:29.401Z,18.70
2019-03-06T22:57:59.533Z,18.70
2019-03-06T23:00:43.317Z,18.70
2019-03-06T23:03:16.376Z,18.70
2019-03-06T23:05:47.646Z,18.70
2019-03-06T23:08:17.778Z,18.70
2019-03-06T23:10:47.930Z,18.70
2019-03-06T23:13:18.063Z,18.70
2019-03-06T23:15:48.207Z,18.70
2019-03-06T23:18:18.336Z,18.60
2019-03-06T23:20:48.471Z,18.70
2019-03-06T23:23:18.605Z,18.70
2019-03-06T23:25:48.744Z,18.60
2019-03-06T23:28:18.873Z,18.60
2019-03-06T23:30:49.015Z,18.60
2019-03-06T23:33:19.157Z,18.60
2019-03-06T23:35:49.294Z,18.60
2019-03-06T23:38:19.445Z,18.60
2019-03-06T23:40:49.761Z,18.60
2019-03-06T23:43:19.893Z,18.60
2019-03-06T23:45:50.084Z,18.60
2019-03-06T23:48:20.247Z,18.60
2019-03-06T23:50:50.385Z,18.60
2019-03-06T23:53:21.180Z,18.60
2019-03-06T23:55:51.316Z,18.60
2019-03-06T23:58:21.445Z,18.60
